sensor_id;sensor_type;location;lat;lon;timestamp;P1;durP1;ratioP1;P2;durP2;ratioP2
75772;SDS011;64381;0.000;0.000;2023-04-24T00:00:00;4.00;;;1.80;;
75772;SDS011;64381;0.000;0.000;2023-04-24T00:02:25;4.33;;;2.00;;
75772;SDS011;64381;0.000;0.000;2023-04-24T00:04:51;3.83;;;1.90;;
75772;SDS011;64381;0.000;0.000;2023-04-24T00:07:16;4.47;;;2.10;;
75772;SDS011;64381;0.000;0.000;2023-04-24T00:09:41;3.80;;;2.10;;
75772;SDS011;64381;0.000;0.000;2023-04-24T00:12:07;3.60;;;1.90;;
75772;SDS011;64381;0.000;0.000;2023-04-24T00:14:32;4.27;;;2.00;;
75772;SDS011;64381;0.000;0.000;2023-04-24T00:16:57;4.10;;;1.90;;
75772;SDS011;64381;0.000;0.000;2023-04-24T00:19:23;4.07;;;1.97;;
75772;SDS011;64381;0.000;0.000;2023-04-24T00:21:48;3.73;;;1.80;;
75772;SDS011;64381;0.000;0.000;2023-04-24T00:24:13;3.90;;;1.83;;
75772;SDS011;64381;0.000;0.000;2023-04-24T00:26:39;4.00;;;1.90;;
75772;SDS011;64381;0.000;0.000;2023-04-24T00:29:04;3.83;;;2.00;;
75772;SDS011;64381;0.000;0.000;2023-04-24T00:31:29;4.57;;;2.30;;
75772;SDS011;64381;0.000;0.000;2023-04-24T00:33:54;3.83;;;2.13;;
75772;SDS011;64381;0.000;0.000;2023-04-24T00:36:19;4.43;;;1.90;;
75772;SDS011;64381;0.000;0.000;2023-04-24T00:38:45;3.50;;;1.90;;
75772;SDS011;64381;0.000;0.000;2023-04-24T00:41:10;4.30;;;1.90;;
75772;SDS011;64381;0.000;0.000;2023-04-24T00:43:35;3.73;;;1.83;;
75772;SDS011;64381;0.000;0.000;2023-04-24T00:46:00;3.90;;;2.27;;
75772;SDS011;64381;0.000;0.000;2023-04-24T00:48:25;4.77;;;2.00;;
75772;SDS011;64381;0.000;0.000;2023-04-24T00:50:51;4.30;;;2.10;;
75772;SDS011;64381;0.000;0.000;2023-04-24T00:53:16;4.27;;;2.20;;
75772;SDS011;64381;0.000;0.000;2023-04-24T00:55:41;3.73;;;1.80;;
75772;SDS011;64381;0.000;0.000;2023-04-24T00:58:07;3.78;;;1.95;;
75772;SDS011;64381;0.000;0.000;2023-04-24T01:00:32;3.87;;;2.00;;
75772;SDS011;64381;0.000;0.000;2023-04-24T01:02:59;3.53;;;2.00;;
75772;SDS011;64381;0.000;0.000;2023-04-24T01:05:26;4.00;;;1.90;;
75772;SDS011;64381;0.000;0.000;2023-04-24T01:07:51;3.57;;;1.80;;
75772;SDS011;64381;0.000;0.000;2023-04-24T01:10:17;3.87;;;1.90;;
75772;SDS011;64381;0.000;0.000;2023-04-24T01:12:42;3.47;;;1.90;;
75772;SDS011;64381;0.000;0.000;2023-04-24T01:15:07;4.00;;;2.10;;
75772;SDS011;64381;0.000;0.000;2023-04-24T01:17:33;4.03;;;1.98;;
75772;SDS011;64381;0.000;0.000;2023-04-24T01:19:59;3.73;;;2.10;;
75772;SDS011;64381;0.000;0.000;2023-04-24T01:22:24;3.97;;;1.70;;
75772;SDS011;64381;0.000;0.000;2023-04-24T01:24:50;3.90;;;1.80;;
75772;SDS011;64381;0.000;0.000;2023-04-24T01:27:16;3.70;;;1.80;;
75772;SDS011;64381;0.000;0.000;2023-04-24T01:29:41;3.77;;;1.90;;
75772;SDS011;64381;0.000;0.000;2023-04-24T01:32:07;3.30;;;1.80;;
75772;SDS011;64381;0.000;0.000;2023-04-24T01:34:32;3.60;;;1.90;;
75772;SDS011;64381;0.000;0.000;2023-04-24T01:36:58;3.83;;;1.90;;
75772;SDS011;64381;0.000;0.000;2023-04-24T01:39:24;4.27;;;1.80;;
75772;SDS011;64381;0.000;0.000;2023-04-24T01:41:49;3.80;;;1.97;;
75772;SDS011;64381;0.000;0.000;2023-04-24T01:44:14;3.80;;;1.70;;
75772;SDS011;64381;0.000;0.000;2023-04-24T01:46:40;3.97;;;1.80;;
75772;SDS011;64381;0.000;0.000;2023-04-24T01:49:06;3.47;;;1.60;;
75772;SDS011;64381;0.000;0.000;2023-04-24T01:51:31;3.97;;;1.70;;
75772;SDS011;64381;0.000;0.000;2023-04-24T01:53:57;3.87;;;1.80;;
75772;SDS011;64381;0.000;0.000;2023-04-24T01:56:22;4.10;;;1.80;;
75772;SDS011;64381;0.000;0.000;2023-04-24T01:58:48;3.83;;;1.80;;
75772;SDS011;64381;0.000;0.000;2023-04-24T02:01:17;3.85;;;1.95;;
75772;SDS011;64381;0.000;0.000;2023-04-24T02:03:43;4.15;;;2.00;;
75772;SDS011;64381;0.000;0.000;2023-04-24T02:06:09;3.60;;;1.80;;
75772;SDS011;64381;0.000;0.000;2023-04-24T02:08:34;4.33;;;1.73;;
75772;SDS011;64381;0.000;0.000;2023-04-24T02:10:59;3.77;;;1.70;;
75772;SDS011;64381;0.000;0.000;2023-04-24T02:13:24;3.57;;;1.73;;
75772;SDS011;64381;0.000;0.000;2023-04-24T02:15:49;4.27;;;1.83;;
75772;SDS011;64381;0.000;0.000;2023-04-24T02:18:15;3.73;;;1.60;;
75772;SDS011;64381;0.000;0.000;2023-04-24T02:20:40;3.80;;;1.70;;
75772;SDS011;64381;0.000;0.000;2023-04-24T02:23:05;3.50;;;1.80;;
75772;SDS011;64381;0.000;0.000;2023-04-24T02:25:30;3.80;;;1.90;;
75772;SDS011;64381;0.000;0.000;2023-04-24T02:27:55;3.20;;;1.60;;
75772;SDS011;64381;0.000;0.000;2023-04-24T02:30:21;3.33;;;1.70;;
75772;SDS011;64381;0.000;0.000;2023-04-24T02:32:46;3.40;;;1.80;;
75772;SDS011;64381;0.000;0.000;2023-04-24T02:35:11;3.60;;;1.80;;
75772;SDS011;64381;0.000;0.000;2023-04-24T02:37:36;3.83;;;1.77;;
75772;SDS011;64381;0.000;0.000;2023-04-24T02:40:02;3.23;;;1.63;;
75772;SDS011;64381;0.000;0.000;2023-04-24T02:42:27;4.17;;;1.70;;
75772;SDS011;64381;0.000;0.000;2023-04-24T02:44:52;3.70;;;1.70;;
75772;SDS011;64381;0.000;0.000;2023-04-24T02:47:17;4.00;;;1.60;;
75772;SDS011;64381;0.000;0.000;2023-04-24T02:49:43;4.10;;;1.80;;
75772;SDS011;64381;0.000;0.000;2023-04-24T02:52:08;3.47;;;1.70;;
75772;SDS011;64381;0.000;0.000;2023-04-24T02:54:33;3.37;;;1.60;;
75772;SDS011;64381;0.000;0.000;2023-04-24T02:56:58;3.40;;;1.60;;
75772;SDS011;64381;0.000;0.000;2023-04-24T02:59:23;3.20;;;1.50;;
75772;SDS011;64381;0.000;0.000;2023-04-24T03:01:49;3.55;;;1.50;;
75772;SDS011;64381;0.000;0.000;2023-04-24T03:04:14;3.13;;;1.40;;
75772;SDS011;64381;0.000;0.000;2023-04-24T03:06:40;3.67;;;1.70;;
75772;SDS011;64381;0.000;0.000;2023-04-24T03:09:05;3.13;;;1.40;;
75772;SDS011;64381;0.000;0.000;2023-04-24T03:11:30;3.67;;;1.60;;
75772;SDS011;64381;0.000;0.000;2023-04-24T03:13:55;3.63;;;1.50;;
75772;SDS011;64381;0.000;0.000;2023-04-24T03:16:20;3.60;;;1.70;;
75772;SDS011;64381;0.000;0.000;2023-04-24T03:18:46;3.40;;;1.60;;
75772;SDS011;64381;0.000;0.000;2023-04-24T03:21:11;3.37;;;1.50;;
75772;SDS011;64381;0.000;0.000;2023-04-24T03:23:36;3.67;;;1.77;;
75772;SDS011;64381;0.000;0.000;2023-04-24T03:26:01;3.40;;;1.70;;
75772;SDS011;64381;0.000;0.000;2023-04-24T03:28:27;3.33;;;1.63;;
75772;SDS011;64381;0.000;0.000;2023-04-24T03:30:52;3.07;;;1.50;;
75772;SDS011;64381;0.000;0.000;2023-04-24T03:33:17;3.63;;;1.67;;
75772;SDS011;64381;0.000;0.000;2023-04-24T03:35:42;2.93;;;1.30;;
75772;SDS011;64381;0.000;0.000;2023-04-24T03:38:07;3.27;;;1.70;;
75772;SDS011;64381;0.000;0.000;2023-04-24T03:40:33;3.00;;;1.50;;
75772;SDS011;64381;0.000;0.000;2023-04-24T03:42:58;3.37;;;1.60;;
75772;SDS011;64381;0.000;0.000;2023-04-24T03:45:23;3.40;;;1.50;;
75772;SDS011;64381;0.000;0.000;2023-04-24T03:47:48;2.90;;;1.40;;
75772;SDS011;64381;0.000;0.000;2023-04-24T03:50:14;3.30;;;1.33;;
75772;SDS011;64381;0.000;0.000;2023-04-24T03:52:39;3.10;;;1.40;;
75772;SDS011;64381;0.000;0.000;2023-04-24T03:55:04;3.70;;;1.40;;
75772;SDS011;64381;0.000;0.000;2023-04-24T03:57:30;3.07;;;1.40;;
75772;SDS011;64381;0.000;0.000;2023-04-24T03:59:55;3.40;;;1.70;;
75772;SDS011;64381;0.000;0.000;2023-04-24T04:02:20;3.43;;;1.50;;
75772;SDS011;64381;0.000;0.000;2023-04-24T04:04:45;3.43;;;1.60;;
75772;SDS011;64381;0.000;0.000;2023-04-24T04:07:11;3.33;;;1.40;;
75772;SDS011;64381;0.000;0.000;2023-04-24T04:09:36;3.23;;;1.33;;
75772;SDS011;64381;0.000;0.000;2023-04-24T04:12:01;3.13;;;1.40;;
75772;SDS011;64381;0.000;0.000;2023-04-24T04:14:27;4.07;;;1.93;;
75772;SDS011;64381;0.000;0.000;2023-04-24T04:16:52;3.63;;;1.60;;
75772;SDS011;64381;0.000;0.000;2023-04-24T04:19:17;3.40;;;1.57;;
75772;SDS011;64381;0.000;0.000;2023-04-24T04:21:42;3.10;;;1.60;;
75772;SDS011;64381;0.000;0.000;2023-04-24T04:24:08;3.67;;;1.63;;
75772;SDS011;64381;0.000;0.000;2023-04-24T04:26:33;3.20;;;1.60;;
75772;SDS011;64381;0.000;0.000;2023-04-24T04:28:58;3.20;;;1.60;;
75772;SDS011;64381;0.000;0.000;2023-04-24T04:31:24;3.20;;;1.50;;
75772;SDS011;64381;0.000;0.000;2023-04-24T04:33:49;3.00;;;1.50;;
75772;SDS011;64381;0.000;0.000;2023-04-24T04:36:14;3.33;;;1.47;;
75772;SDS011;64381;0.000;0.000;2023-04-24T04:38:40;3.57;;;1.40;;
75772;SDS011;64381;0.000;0.000;2023-04-24T04:41:05;3.03;;;1.40;;
75772;SDS011;64381;0.000;0.000;2023-04-24T04:43:30;3.30;;;1.40;;
75772;SDS011;64381;0.000;0.000;2023-04-24T04:45:55;3.30;;;1.60;;
75772;SDS011;64381;0.000;0.000;2023-04-24T04:48:21;3.30;;;1.40;;
75772;SDS011;64381;0.000;0.000;2023-04-24T04:50:46;3.30;;;1.60;;
75772;SDS011;64381;0.000;0.000;2023-04-24T04:53:11;3.10;;;1.50;;
75772;SDS011;64381;0.000;0.000;2023-04-24T04:55:37;3.10;;;1.33;;
75772;SDS011;64381;0.000;0.000;2023-04-24T04:58:03;3.20;;;1.40;;
75772;SDS011;64381;0.000;0.000;2023-04-24T05:00:29;3.27;;;1.70;;
75772;SDS011;64381;0.000;0.000;2023-04-24T05:02:54;3.03;;;1.47;;
75772;SDS011;64381;0.000;0.000;2023-04-24T05:05:19;2.87;;;1.37;;
75772;SDS011;64381;0.000;0.000;2023-04-24T05:07:45;3.57;;;1.57;;
75772;SDS011;64381;0.000;0.000;2023-04-24T05:10:10;3.03;;;1.30;;
75772;SDS011;64381;0.000;0.000;2023-04-24T05:12:35;3.67;;;1.70;;
75772;SDS011;64381;0.000;0.000;2023-04-24T05:15:01;2.80;;;1.20;;
75772;SDS011;64381;0.000;0.000;2023-04-24T05:17:26;3.37;;;1.40;;
75772;SDS011;64381;0.000;0.000;2023-04-24T05:19:51;3.30;;;1.50;;
75772;SDS011;64381;0.000;0.000;2023-04-24T05:22:16;4.23;;;1.40;;
75772;SDS011;64381;0.000;0.000;2023-04-24T05:24:41;3.30;;;1.50;;
75772;SDS011;64381;0.000;0.000;2023-04-24T05:27:07;3.27;;;1.23;;
75772;SDS011;64381;0.000;0.000;2023-04-24T05:29:32;2.90;;;1.30;;
75772;SDS011;64381;0.000;0.000;2023-04-24T05:31:57;3.77;;;1.40;;
75772;SDS011;64381;0.000;0.000;2023-04-24T05:34:23;3.10;;;1.30;;
75772;SDS011;64381;0.000;0.000;2023-04-24T05:36:48;3.70;;;1.40;;
75772;SDS011;64381;0.000;0.000;2023-04-24T05:39:13;4.60;;;1.47;;
75772;SDS011;64381;0.000;0.000;2023-04-24T05:41:39;3.33;;;1.40;;
75772;SDS011;64381;0.000;0.000;2023-04-24T05:44:04;3.00;;;1.40;;
75772;SDS011;64381;0.000;0.000;2023-04-24T05:46:30;2.93;;;1.40;;
75772;SDS011;64381;0.000;0.000;2023-04-24T05:48:55;3.72;;;1.40;;
75772;SDS011;64381;0.000;0.000;2023-04-24T05:51:20;3.40;;;1.30;;
75772;SDS011;64381;0.000;0.000;2023-04-24T05:53:46;4.30;;;1.57;;
75772;SDS011;64381;0.000;0.000;2023-04-24T05:56:11;3.57;;;1.53;;
75772;SDS011;64381;0.000;0.000;2023-04-24T05:58:36;3.13;;;1.23;;
75772;SDS011;64381;0.000;0.000;2023-04-24T06:01:01;2.80;;;1.40;;
75772;SDS011;64381;0.000;0.000;2023-04-24T06:03:27;3.50;;;1.20;;
75772;SDS011;64381;0.000;0.000;2023-04-24T06:05:52;3.10;;;1.30;;
75772;SDS011;64381;0.000;0.000;2023-04-24T06:08:17;2.80;;;1.43;;
75772;SDS011;64381;0.000;0.000;2023-04-24T06:10:42;3.27;;;1.27;;
75772;SDS011;64381;0.000;0.000;2023-04-24T06:13:07;4.27;;;1.30;;
75772;SDS011;64381;0.000;0.000;2023-04-24T06:15:33;3.10;;;1.30;;
75772;SDS011;64381;0.000;0.000;2023-04-24T06:17:58;2.93;;;1.30;;
75772;SDS011;64381;0.000;0.000;2023-04-24T06:20:24;3.20;;;1.40;;
75772;SDS011;64381;0.000;0.000;2023-04-24T06:22:49;3.20;;;1.20;;
75772;SDS011;64381;0.000;0.000;2023-04-24T06:25:15;3.07;;;1.30;;
75772;SDS011;64381;0.000;0.000;2023-04-24T06:27:40;3.10;;;1.23;;
75772;SDS011;64381;0.000;0.000;2023-04-24T06:30:05;3.03;;;1.40;;
75772;SDS011;64381;0.000;0.000;2023-04-24T06:32:31;3.20;;;1.60;;
75772;SDS011;64381;0.000;0.000;2023-04-24T06:34:56;3.10;;;1.40;;
75772;SDS011;64381;0.000;0.000;2023-04-24T06:37:21;2.97;;;1.30;;
75772;SDS011;64381;0.000;0.000;2023-04-24T06:39:47;3.80;;;1.33;;
75772;SDS011;64381;0.000;0.000;2023-04-24T06:42:12;3.00;;;1.30;;
75772;SDS011;64381;0.000;0.000;2023-04-24T06:44:37;2.70;;;1.20;;
75772;SDS011;64381;0.000;0.000;2023-04-24T06:47:03;3.23;;;1.20;;
75772;SDS011;64381;0.000;0.000;2023-04-24T06:49:28;3.60;;;1.30;;
75772;SDS011;64381;0.000;0.000;2023-04-24T06:51:53;2.83;;;1.30;;
75772;SDS011;64381;0.000;0.000;2023-04-24T06:54:18;3.20;;;1.20;;
75772;SDS011;64381;0.000;0.000;2023-04-24T06:56:43;3.00;;;1.30;;
75772;SDS011;64381;0.000;0.000;2023-04-24T06:59:09;3.17;;;1.27;;
75772;SDS011;64381;0.000;0.000;2023-04-24T07:01:34;3.23;;;1.20;;
75772;SDS011;64381;0.000;0.000;2023-04-24T07:03:59;3.27;;;1.40;;
75772;SDS011;64381;0.000;0.000;2023-04-24T07:06:24;2.70;;;1.20;;
75772;SDS011;64381;0.000;0.000;2023-04-24T07:08:50;3.07;;;1.30;;
75772;SDS011;64381;0.000;0.000;2023-04-24T07:11:15;3.87;;;1.20;;
75772;SDS011;64381;0.000;0.000;2023-04-24T07:13:40;3.17;;;1.30;;
75772;SDS011;64381;0.000;0.000;2023-04-24T07:16:05;3.10;;;1.20;;
75772;SDS011;64381;0.000;0.000;2023-04-24T07:18:30;3.10;;;1.30;;
75772;SDS011;64381;0.000;0.000;2023-04-24T07:20:56;3.20;;;1.30;;
75772;SDS011;64381;0.000;0.000;2023-04-24T07:23:21;2.70;;;1.10;;
75772;SDS011;64381;0.000;0.000;2023-04-24T07:25:46;3.20;;;1.20;;
75772;SDS011;64381;0.000;0.000;2023-04-24T07:28:12;2.70;;;1.10;;
75772;SDS011;64381;0.000;0.000;2023-04-24T07:30:37;2.95;;;1.27;;
75772;SDS011;64381;0.000;0.000;2023-04-24T07:33:02;3.03;;;1.30;;
75772;SDS011;64381;0.000;0.000;2023-04-24T07:35:27;2.80;;;1.20;;
75772;SDS011;64381;0.000;0.000;2023-04-24T07:37:53;3.20;;;1.30;;
75772;SDS011;64381;0.000;0.000;2023-04-24T07:40:18;3.27;;;1.20;;
75772;SDS011;64381;0.000;0.000;2023-04-24T07:42:44;3.05;;;1.30;;
75772;SDS011;64381;0.000;0.000;2023-04-24T07:45:09;2.70;;;1.10;;
75772;SDS011;64381;0.000;0.000;2023-04-24T07:47:35;3.27;;;1.20;;
75772;SDS011;64381;0.000;0.000;2023-04-24T07:50:00;2.87;;;1.37;;
75772;SDS011;64381;0.000;0.000;2023-04-24T07:52:25;3.33;;;1.10;;
75772;SDS011;64381;0.000;0.000;2023-04-24T07:54:51;2.80;;;1.20;;
75772;SDS011;64381;0.000;0.000;2023-04-24T07:57:16;2.80;;;1.10;;
75772;SDS011;64381;0.000;0.000;2023-04-24T07:59:41;4.10;;;1.10;;
75772;SDS011;64381;0.000;0.000;2023-04-24T08:02:06;3.03;;;1.23;;
75772;SDS011;64381;0.000;0.000;2023-04-24T08:04:32;3.23;;;1.13;;
75772;SDS011;64381;0.000;0.000;2023-04-24T08:06:58;3.27;;;1.00;;
75772;SDS011;64381;0.000;0.000;2023-04-24T08:09:23;3.23;;;1.10;;
75772;SDS011;64381;0.000;0.000;2023-04-24T08:11:48;2.73;;;0.93;;
75772;SDS011;64381;0.000;0.000;2023-04-24T08:14:13;4.03;;;1.27;;
75772;SDS011;64381;0.000;0.000;2023-04-24T08:16:39;3.63;;;1.20;;
75772;SDS011;64381;0.000;0.000;2023-04-24T08:19:04;3.40;;;1.50;;
75772;SDS011;64381;0.000;0.000;2023-04-24T08:21:29;2.57;;;1.07;;
75772;SDS011;64381;0.000;0.000;2023-04-24T08:23:54;3.57;;;1.10;;
75772;SDS011;64381;0.000;0.000;2023-04-24T08:26:20;4.80;;;1.10;;
75772;SDS011;64381;0.000;0.000;2023-04-24T08:28:45;3.10;;;1.40;;
75772;SDS011;64381;0.000;0.000;2023-04-24T08:31:10;3.03;;;1.03;;
75772;SDS011;64381;0.000;0.000;2023-04-24T08:33:35;4.00;;;1.23;;
75772;SDS011;64381;0.000;0.000;2023-04-24T08:36:04;3.07;;;1.20;;
75772;SDS011;64381;0.000;0.000;2023-04-24T08:38:30;3.33;;;1.33;;
75772;SDS011;64381;0.000;0.000;2023-04-24T08:40:57;3.15;;;1.20;;
75772;SDS011;64381;0.000;0.000;2023-04-24T08:43:23;3.28;;;1.35;;
75772;SDS011;64381;0.000;0.000;2023-04-24T08:45:50;4.55;;;1.10;;
75772;SDS011;64381;0.000;0.000;2023-04-24T08:48:15;3.70;;;1.10;;
75772;SDS011;64381;0.000;0.000;2023-04-24T08:50:41;2.90;;;1.30;;
75772;SDS011;64381;0.000;0.000;2023-04-24T08:53:07;2.90;;;1.07;;
75772;SDS011;64381;0.000;0.000;2023-04-24T08:55:33;3.55;;;1.30;;
75772;SDS011;64381;0.000;0.000;2023-04-24T08:57:59;3.27;;;1.47;;
75772;SDS011;64381;0.000;0.000;2023-04-24T09:00:24;2.80;;;1.10;;
75772;SDS011;64381;0.000;0.000;2023-04-24T09:02:50;2.97;;;1.00;;
75772;SDS011;64381;0.000;0.000;2023-04-24T09:05:17;3.25;;;1.13;;
75772;SDS011;64381;0.000;0.000;2023-04-24T09:07:44;3.50;;;1.20;;
75772;SDS011;64381;0.000;0.000;2023-04-24T09:10:13;4.00;;;1.10;;
75772;SDS011;64381;0.000;0.000;2023-04-24T09:12:39;2.90;;;0.98;;
75772;SDS011;64381;0.000;0.000;2023-04-24T09:15:06;2.95;;;1.10;;
75772;SDS011;64381;0.000;0.000;2023-04-24T09:17:33;2.83;;;1.17;;
75772;SDS011;64381;0.000;0.000;2023-04-24T09:19:58;3.33;;;1.10;;
75772;SDS011;64381;0.000;0.000;2023-04-24T09:22:23;2.90;;;1.00;;
75772;SDS011;64381;0.000;0.000;2023-04-24T09:24:59;3.07;;;1.07;;
75772;SDS011;64381;0.000;0.000;2023-04-24T09:27:27;2.80;;;1.23;;
75772;SDS011;64381;0.000;0.000;2023-04-24T09:29:54;2.50;;;0.90;;
75772;SDS011;64381;0.000;0.000;2023-04-24T09:32:20;2.70;;;0.93;;
75772;SDS011;64381;0.000;0.000;2023-04-24T09:34:47;2.97;;;1.10;;
75772;SDS011;64381;0.000;0.000;2023-04-24T09:37:28;2.95;;;1.15;;
75772;SDS011;64381;0.000;0.000;2023-04-24T09:40:13;3.00;;;1.17;;
75772;SDS011;64381;0.000;0.000;2023-04-24T09:42:43;3.25;;;1.20;;
75772;SDS011;64381;0.000;0.000;2023-04-24T09:45:11;2.78;;;1.00;;
75772;SDS011;64381;0.000;0.000;2023-04-24T09:47:37;2.87;;;1.13;;
75772;SDS011;64381;0.000;0.000;2023-04-24T09:50:10;3.33;;;1.20;;
75772;SDS011;64381;0.000;0.000;2023-04-24T09:52:43;2.55;;;1.02;;
75772;SDS011;64381;0.000;0.000;2023-04-24T09:55:10;2.95;;;1.00;;
75772;SDS011;64381;0.000;0.000;2023-04-24T09:57:46;3.40;;;0.98;;
75772;SDS011;64381;0.000;0.000;2023-04-24T10:00:13;2.85;;;1.10;;
75772;SDS011;64381;0.000;0.000;2023-04-24T10:02:38;3.00;;;1.20;;
75772;SDS011;64381;0.000;0.000;2023-04-24T10:05:04;2.70;;;1.10;;
75772;SDS011;64381;0.000;0.000;2023-04-24T10:07:29;2.50;;;1.00;;
75772;SDS011;64381;0.000;0.000;2023-04-24T10:09:57;4.25;;;1.10;;
75772;SDS011;64381;0.000;0.000;2023-04-24T10:12:24;2.60;;;0.90;;
75772;SDS011;64381;0.000;0.000;2023-04-24T10:14:50;2.50;;;0.90;;
75772;SDS011;64381;0.000;0.000;2023-04-24T10:17:15;2.80;;;1.10;;
75772;SDS011;64381;0.000;0.000;2023-04-24T10:19:40;3.20;;;0.90;;
75772;SDS011;64381;0.000;0.000;2023-04-24T10:22:07;2.67;;;0.90;;
75772;SDS011;64381;0.000;0.000;2023-04-24T10:24:33;2.70;;;1.10;;
75772;SDS011;64381;0.000;0.000;2023-04-24T10:26:59;2.70;;;1.00;;
75772;SDS011;64381;0.000;0.000;2023-04-24T10:29:24;2.78;;;0.93;;
75772;SDS011;64381;0.000;0.000;2023-04-24T10:31:50;4.05;;;1.10;;
75772;SDS011;64381;0.000;0.000;2023-04-24T10:34:16;3.40;;;1.20;;
75772;SDS011;64381;0.000;0.000;2023-04-24T10:36:45;2.70;;;1.02;;
75772;SDS011;64381;0.000;0.000;2023-04-24T10:39:13;3.03;;;1.10;;
75772;SDS011;64381;0.000;0.000;2023-04-24T10:41:39;2.78;;;1.02;;
75772;SDS011;64381;0.000;0.000;2023-04-24T10:46:33;3.30;;;1.00;;
75772;SDS011;64381;0.000;0.000;2023-04-24T10:48:58;3.13;;;1.13;;
75772;SDS011;64381;0.000;0.000;2023-04-24T10:51:24;2.60;;;1.03;;
75772;SDS011;64381;0.000;0.000;2023-04-24T10:59:43;2.80;;;0.98;;
75772;SDS011;64381;0.000;0.000;2023-04-24T11:02:09;2.40;;;0.90;;
75772;SDS011;64381;0.000;0.000;2023-04-24T11:04:34;2.60;;;0.90;;
75772;SDS011;64381;0.000;0.000;2023-04-24T11:06:59;2.63;;;0.90;;
75772;SDS011;64381;0.000;0.000;2023-04-24T11:09:28;2.77;;;1.00;;
75772;SDS011;64381;0.000;0.000;2023-04-24T11:12:11;2.70;;;0.90;;
75772;SDS011;64381;0.000;0.000;2023-04-24T11:17:36;2.60;;;1.00;;
75772;SDS011;64381;0.000;0.000;2023-04-24T11:20:03;2.88;;;1.00;;
75772;SDS011;64381;0.000;0.000;2023-04-24T11:22:30;2.70;;;1.00;;
75772;SDS011;64381;0.000;0.000;2023-04-24T11:24:58;2.60;;;0.93;;
75772;SDS011;64381;0.000;0.000;2023-04-24T11:27:24;2.60;;;0.90;;
75772;SDS011;64381;0.000;0.000;2023-04-24T11:34:56;2.80;;;1.00;;
75772;SDS011;64381;0.000;0.000;2023-04-24T11:37:25;2.77;;;1.00;;
75772;SDS011;64381;0.000;0.000;2023-04-24T11:39:53;2.60;;;1.08;;
75772;SDS011;64381;0.000;0.000;2023-04-24T11:42:19;2.30;;;0.82;;
75772;SDS011;64381;0.000;0.000;2023-04-24T11:44:46;3.00;;;0.95;;
75772;SDS011;64381;0.000;0.000;2023-04-24T11:47:11;2.80;;;0.83;;
75772;SDS011;64381;0.000;0.000;2023-04-24T11:49:36;2.33;;;0.83;;
75772;SDS011;64381;0.000;0.000;2023-04-24T11:52:02;2.33;;;0.87;;
75772;SDS011;64381;0.000;0.000;2023-04-24T11:54:29;3.05;;;1.10;;
75772;SDS011;64381;0.000;0.000;2023-04-24T11:56:55;2.70;;;1.00;;
75772;SDS011;64381;0.000;0.000;2023-04-24T11:59:21;2.50;;;1.02;;
75772;SDS011;64381;0.000;0.000;2023-04-24T12:01:46;2.60;;;1.00;;
75772;SDS011;64381;0.000;0.000;2023-04-24T12:04:13;2.50;;;0.88;;
75772;SDS011;64381;0.000;0.000;2023-04-24T12:06:39;2.63;;;1.00;;
75772;SDS011;64381;0.000;0.000;2023-04-24T12:09:04;2.70;;;1.00;;
75772;SDS011;64381;0.000;0.000;2023-04-24T12:11:29;2.40;;;0.90;;
75772;SDS011;64381;0.000;0.000;2023-04-24T12:13:55;2.33;;;1.00;;
75772;SDS011;64381;0.000;0.000;2023-04-24T12:16:20;2.70;;;0.87;;
75772;SDS011;64381;0.000;0.000;2023-04-24T12:18:45;2.93;;;0.87;;
75772;SDS011;64381;0.000;0.000;2023-04-24T12:21:17;2.73;;;0.97;;
75772;SDS011;64381;0.000;0.000;2023-04-24T12:23:47;2.60;;;1.10;;
75772;SDS011;64381;0.000;0.000;2023-04-24T12:26:16;3.25;;;1.13;;
75772;SDS011;64381;0.000;0.000;2023-04-24T12:28:45;2.83;;;0.90;;
75772;SDS011;64381;0.000;0.000;2023-04-24T12:31:11;2.80;;;1.00;;
75772;SDS011;64381;0.000;0.000;2023-04-24T12:33:37;2.80;;;0.90;;
75772;SDS011;64381;0.000;0.000;2023-04-24T12:36:02;2.90;;;0.90;;
75772;SDS011;64381;0.000;0.000;2023-04-24T12:38:28;2.67;;;0.90;;
75772;SDS011;64381;0.000;0.000;2023-04-24T12:41:03;2.55;;;0.90;;
75772;SDS011;64381;0.000;0.000;2023-04-24T12:43:30;2.40;;;0.87;;
75772;SDS011;64381;0.000;0.000;2023-04-24T12:45:55;2.90;;;0.90;;
75772;SDS011;64381;0.000;0.000;2023-04-24T12:48:20;2.60;;;1.00;;
75772;SDS011;64381;0.000;0.000;2023-04-24T12:50:46;2.30;;;0.80;;
75772;SDS011;64381;0.000;0.000;2023-04-24T12:53:11;2.30;;;0.77;;
75772;SDS011;64381;0.000;0.000;2023-04-24T12:55:36;2.80;;;0.90;;
75772;SDS011;64381;0.000;0.000;2023-04-24T12:58:02;2.50;;;0.90;;
75772;SDS011;64381;0.000;0.000;2023-04-24T13:00:27;2.50;;;0.90;;
75772;SDS011;64381;0.000;0.000;2023-04-24T13:02:52;2.60;;;0.90;;
75772;SDS011;64381;0.000;0.000;2023-04-24T13:05:17;2.80;;;0.80;;
75772;SDS011;64381;0.000;0.000;2023-04-24T13:07:43;2.50;;;1.00;;
75772;SDS011;64381;0.000;0.000;2023-04-24T13:10:08;2.63;;;0.90;;
75772;SDS011;64381;0.000;0.000;2023-04-24T13:12:34;2.50;;;0.88;;
75772;SDS011;64381;0.000;0.000;2023-04-24T13:15:00;2.47;;;0.90;;
75772;SDS011;64381;0.000;0.000;2023-04-24T13:17:25;2.60;;;0.87;;
75772;SDS011;64381;0.000;0.000;2023-04-24T13:19:51;2.40;;;0.90;;
75772;SDS011;64381;0.000;0.000;2023-04-24T13:22:16;2.50;;;1.00;;
75772;SDS011;64381;0.000;0.000;2023-04-24T13:24:42;2.67;;;0.90;;
75772;SDS011;64381;0.000;0.000;2023-04-24T13:27:07;2.43;;;1.00;;
75772;SDS011;64381;0.000;0.000;2023-04-24T13:29:33;2.50;;;1.00;;
75772;SDS011;64381;0.000;0.000;2023-04-24T13:31:58;2.50;;;0.88;;
75772;SDS011;64381;0.000;0.000;2023-04-24T13:34:25;2.33;;;0.90;;
75772;SDS011;64381;0.000;0.000;2023-04-24T13:36:52;2.45;;;1.00;;
75772;SDS011;64381;0.000;0.000;2023-04-24T13:39:18;2.55;;;0.90;;
75772;SDS011;64381;0.000;0.000;2023-04-24T13:41:43;2.93;;;1.00;;
75772;SDS011;64381;0.000;0.000;2023-04-24T13:44:08;2.40;;;0.90;;
75772;SDS011;64381;0.000;0.000;2023-04-24T13:46:34;2.70;;;0.93;;
75772;SDS011;64381;0.000;0.000;2023-04-24T13:48:59;3.23;;;1.00;;
75772;SDS011;64381;0.000;0.000;2023-04-24T13:51:25;2.83;;;1.00;;
75772;SDS011;64381;0.000;0.000;2023-04-24T13:53:50;2.40;;;0.90;;
75772;SDS011;64381;0.000;0.000;2023-04-24T13:56:16;2.37;;;0.80;;
75772;SDS011;64381;0.000;0.000;2023-04-24T13:58:41;2.60;;;1.10;;
75772;SDS011;64381;0.000;0.000;2023-04-24T14:01:06;3.03;;;0.90;;
75772;SDS011;64381;0.000;0.000;2023-04-24T14:03:32;2.83;;;1.30;;
75772;SDS011;64381;0.000;0.000;2023-04-24T14:05:58;2.25;;;0.80;;
75772;SDS011;64381;0.000;0.000;2023-04-24T14:08:23;2.40;;;0.83;;
75772;SDS011;64381;0.000;0.000;2023-04-24T14:10:49;2.40;;;0.90;;
75772;SDS011;64381;0.000;0.000;2023-04-24T14:13:14;2.78;;;0.90;;
75772;SDS011;64381;0.000;0.000;2023-04-24T14:15:40;2.63;;;0.90;;
75772;SDS011;64381;0.000;0.000;2023-04-24T14:18:05;2.60;;;0.80;;
75772;SDS011;64381;0.000;0.000;2023-04-24T14:20:30;2.60;;;1.00;;
75772;SDS011;64381;0.000;0.000;2023-04-24T14:22:55;2.40;;;0.90;;
75772;SDS011;64381;0.000;0.000;2023-04-24T14:25:21;3.17;;;0.90;;
75772;SDS011;64381;0.000;0.000;2023-04-24T14:27:46;2.53;;;1.00;;
75772;SDS011;64381;0.000;0.000;2023-04-24T14:30:11;2.40;;;0.90;;
75772;SDS011;64381;0.000;0.000;2023-04-24T14:32:38;2.25;;;0.80;;
75772;SDS011;64381;0.000;0.000;2023-04-24T14:35:04;2.72;;;1.00;;
75772;SDS011;64381;0.000;0.000;2023-04-24T14:37:30;2.70;;;0.90;;
75772;SDS011;64381;0.000;0.000;2023-04-24T14:39:55;2.70;;;0.97;;
75772;SDS011;64381;0.000;0.000;2023-04-24T14:42:20;2.30;;;0.73;;
75772;SDS011;64381;0.000;0.000;2023-04-24T14:44:45;2.43;;;0.83;;
75772;SDS011;64381;0.000;0.000;2023-04-24T14:47:11;2.47;;;0.80;;
75772;SDS011;64381;0.000;0.000;2023-04-24T14:49:36;2.40;;;0.90;;
75772;SDS011;64381;0.000;0.000;2023-04-24T14:52:01;2.40;;;0.87;;
75772;SDS011;64381;0.000;0.000;2023-04-24T14:54:26;2.30;;;0.80;;
75772;SDS011;64381;0.000;0.000;2023-04-24T14:56:51;2.50;;;1.00;;
75772;SDS011;64381;0.000;0.000;2023-04-24T14:59:17;2.40;;;0.80;;
75772;SDS011;64381;0.000;0.000;2023-04-24T15:01:42;2.50;;;0.90;;
75772;SDS011;64381;0.000;0.000;2023-04-24T15:04:07;2.60;;;0.90;;
75772;SDS011;64381;0.000;0.000;2023-04-24T15:06:32;2.40;;;0.80;;